Pearces, Michigan
Current Conditions -  °F | °C
As of 11:34 AM on Tuesday 27 Jan 2015 (Local Time) from KOZW Reporting Station
Clear Clear  
Wind Chill: 12°   Ceiling: Unl
Heat Index: 20°   Visibility: 10mi
Dew Point: 12°   Wind: 7mph
Humidity: 70%   Direction: 10°N
Pressure: 30.11"   Gusts: NA
Location:  42.7°N, 83.9305°W
Report Text: KOZW 271634Z AUTO 01006KT 10SM CLR M06/M11 A3011 RMK AO2 T10641111
Loading
Personal Weather Stations






























Interactive Weather Map New forecast layout! Learn more

10-Day Weather Forecast

Advertisements
Track Severe Weather on mobile